createdAt,value
2018-06-16T00:00:31.634Z,16.49
2018-06-16T00:01:30.460Z,16.47
2018-06-16T00:02:31.291Z,16.49
2018-06-16T00:03:31.104Z,16.49
2018-06-16T00:04:31.173Z,16.50
2018-06-16T00:05:31.385Z,16.51
2018-06-16T00:06:31.639Z,16.53
2018-06-16T00:07:30.566Z,16.51
2018-06-16T00:08:32.266Z,16.50
2018-06-16T00:09:31.106Z,16.50
2018-06-16T00:10:30.886Z,16.49
2018-06-16T00:11:30.724Z,16.50
2018-06-16T00:12:30.903Z,16.49
2018-06-16T00:13:30.658Z,16.49
2018-06-16T00:14:30.388Z,16.49
2018-06-16T00:15:31.146Z,16.49
2018-06-16T00:16:31.408Z,16.49
2018-06-16T00:17:31.534Z,16.50
2018-06-16T00:18:30.827Z,16.47
2018-06-16T00:19:30.976Z,16.49
2018-06-16T00:20:51.976Z,16.49
2018-06-16T00:21:52.274Z,16.49
2018-06-16T00:22:52.097Z,16.49
2018-06-16T00:23:51.821Z,16.50
2018-06-16T00:24:52.944Z,16.49
2018-06-16T00:25:52.621Z,16.49
2018-06-16T00:26:52.812Z,16.47
2018-06-16T00:27:51.583Z,16.46
2018-06-16T00:28:52.909Z,16.43
2018-06-16T00:29:51.802Z,16.47
2018-06-16T00:30:52.025Z,16.47
2018-06-16T00:31:52.210Z,16.49
2018-06-16T00:32:52.472Z,16.49
2018-06-16T00:33:52.745Z,16.49
2018-06-16T00:34:52.944Z,16.49
2018-06-16T00:35:51.781Z,16.47
2018-06-16T00:36:52.478Z,16.47
2018-06-16T00:37:52.356Z,16.43
2018-06-16T00:39:33.821Z,16.41
2018-06-16T00:40:34.847Z,16.38
2018-06-16T00:41:34.659Z,16.39
2018-06-16T00:42:34.328Z,16.36
2018-06-16T00:43:34.686Z,16.38
2018-06-16T00:44:34.437Z,16.36
2018-06-16T00:45:34.469Z,16.33
2018-06-16T00:46:34.679Z,16.33
2018-06-16T00:47:35.307Z,16.33
2018-06-16T00:48:34.668Z,16.33
2018-06-16T00:49:34.445Z,16.33
2018-06-16T00:50:34.619Z,16.35
2018-06-16T00:51:34.333Z,16.33
2018-06-16T00:52:34.067Z,16.35
2018-06-16T00:53:35.160Z,16.35
2018-06-16T00:54:34.443Z,16.36
2018-06-16T00:55:34.279Z,16.33
2018-06-16T00:56:34.131Z,16.35
2018-06-16T00:57:34.443Z,16.36
2018-06-16T00:58:34.252Z,16.38
2018-06-16T00:59:34.116Z,16.38
2018-06-16T01:00:34.034Z,16.35
2018-06-16T01:01:54.736Z,16.35
2018-06-16T01:02:54.560Z,16.35
2018-06-16T01:04:16.175Z,16.35
2018-06-16T01:05:15.941Z,16.35
2018-06-16T01:06:15.894Z,16.35
2018-06-16T01:07:16.693Z,16.36
2018-06-16T01:08:16.965Z,16.38
2018-06-16T01:09:16.206Z,16.39
2018-06-16T01:10:16.365Z,16.39
2018-06-16T01:11:16.431Z,16.41
2018-06-16T01:12:16.658Z,16.41
2018-06-16T01:13:16.748Z,16.42
2018-06-16T01:14:37.822Z,16.43
2018-06-16T01:15:38.864Z,16.46
2018-06-16T01:16:38.824Z,16.42
2018-06-16T01:17:37.594Z,16.42
2018-06-16T01:18:59.099Z,16.42
2018-06-16T01:20:41.072Z,16.43
2018-06-16T01:21:42.052Z,16.43
2018-06-16T01:22:42.106Z,16.46
2018-06-16T01:23:41.935Z,16.46
2018-06-16T01:24:42.023Z,16.43
2018-06-16T01:25:41.772Z,16.43
2018-06-16T01:27:02.815Z,16.46
2018-06-16T01:28:02.814Z,16.47
2018-06-16T01:29:02.746Z,16.46
2018-06-16T01:30:02.285Z,16.47
2018-06-16T01:31:01.979Z,16.47
2018-06-16T01:32:03.100Z,16.46
2018-06-16T01:33:22.553Z,16.47
2018-06-16T01:34:23.515Z,16.49
2018-06-16T01:35:23.456Z,16.51
2018-06-16T01:36:23.521Z,16.51
2018-06-16T01:37:23.148Z,16.53
2018-06-16T01:38:23.382Z,16.51
2018-06-16T01:39:43.083Z,16.50
2018-06-16T01:40:44.030Z,16.50
2018-06-16T01:41:42.830Z,16.51
2018-06-16T01:42:43.976Z,16.51
2018-06-16T01:43:42.776Z,16.54
2018-06-16T01:44:43.436Z,16.53
2018-06-16T01:45:43.516Z,16.53
2018-06-16T01:46:43.243Z,16.51
2018-06-16T01:47:43.547Z,16.53
2018-06-16T01:48:43.503Z,16.50
2018-06-16T01:49:43.289Z,16.53
2018-06-16T01:50:43.401Z,16.54
2018-06-16T01:51:43.164Z,16.54
2018-06-16T01:52:43.211Z,16.54
2018-06-16T01:53:42.814Z,16.56
2018-06-16T01:55:04.597Z,16.57
2018-06-16T01:56:26.293Z,16.56
2018-06-16T01:57:25.934Z,16.57
2018-06-16T01:58:26.957Z,16.56
2018-06-16T01:59:26.691Z,16.56
2018-06-16T02:00:26.330Z,16.57
2018-06-16T02:01:26.599Z,16.57
2018-06-16T02:02:26.670Z,16.57
2018-06-16T02:03:26.733Z,16.57
2018-06-16T02:04:47.349Z,16.57
2018-06-16T02:05:47.064Z,16.56
2018-06-16T02:06:48.138Z,16.54
2018-06-16T02:07:48.160Z,16.54
2018-06-16T02:08:47.636Z,16.53
2018-06-16T02:09:47.882Z,16.54
2018-06-16T02:10:47.896Z,16.54
2018-06-16T02:11:47.968Z,16.53
2018-06-16T02:12:47.710Z,16.53
2018-06-16T02:13:47.334Z,16.51
2018-06-16T02:15:08.780Z,16.51
2018-06-16T02:16:08.589Z,16.51
2018-06-16T02:17:30.054Z,16.51
2018-06-16T02:18:30.800Z,16.50
2018-06-16T02:19:30.418Z,16.49
2018-06-16T02:20:51.247Z,16.47
2018-06-16T02:21:52.250Z,16.49
2018-06-16T02:23:23.971Z,16.46
2018-06-16T02:24:11.720Z,16.43
2018-06-16T02:25:11.993Z,16.43
2018-06-16T02:26:53.116Z,16.38
2018-06-16T02:27:52.779Z,16.33
2018-06-16T02:28:53.756Z,16.33
2018-06-16T02:29:53.779Z,16.32
2018-06-16T02:30:53.535Z,16.32
2018-06-16T02:31:53.333Z,16.29
2018-06-16T02:32:53.443Z,16.29
2018-06-16T02:33:53.183Z,16.29
2018-06-16T02:35:13.800Z,16.28
2018-06-16T02:36:14.187Z,16.24
2018-06-16T02:37:35.293Z,16.21
2018-06-16T02:38:35.134Z,16.20
2018-06-16T02:39:34.975Z,16.17
2018-06-16T02:40:35.753Z,16.17
2018-06-16T02:41:35.828Z,16.20
2018-06-16T02:42:36.003Z,16.15
2018-06-16T02:43:56.200Z,16.10
2018-06-16T02:44:57.175Z,16.08
2018-06-16T02:45:57.399Z,16.05
2018-06-16T02:46:57.187Z,16.02
2018-06-16T02:48:38.089Z,16.00
2018-06-16T02:49:38.287Z,15.97
2018-06-16T02:50:38.209Z,15.94
2018-06-16T02:51:58.462Z,15.94
2018-06-16T02:52:59.413Z,15.92
2018-06-16T02:53:59.669Z,15.91
2018-06-16T02:55:19.826Z,15.91
2018-06-16T02:56:20.904Z,15.91
2018-06-16T02:57:20.735Z,15.90
2018-06-16T02:58:20.533Z,15.86
2018-06-16T02:59:21.057Z,15.83
2018-06-16T03:00:21.201Z,15.82
2018-06-16T03:01:20.131Z,15.79
2018-06-16T03:02:20.086Z,15.76
2018-06-16T03:03:20.114Z,15.75
2018-06-16T03:04:42.160Z,15.73
2018-06-16T03:05:42.308Z,15.73
2018-06-16T03:06:44.768Z,15.72
2018-06-16T03:07:44.877Z,15.70
2018-06-16T03:08:42.063Z,15.70
2018-06-16T03:09:42.349Z,15.72
2018-06-16T03:10:42.514Z,15.72
2018-06-16T03:12:02.794Z,15.70
2018-06-16T03:13:24.414Z,15.67
2018-06-16T03:14:45.922Z,15.70
2018-06-16T03:16:08.025Z,15.67
2018-06-16T03:17:08.258Z,15.65
2018-06-16T03:18:08.465Z,15.67
2018-06-16T03:19:08.410Z,15.67
2018-06-16T03:21:51.589Z,15.67
2018-06-16T03:22:51.425Z,15.67
2018-06-16T03:23:52.581Z,15.68
2018-06-16T03:25:32.592Z,15.70
2018-06-16T03:26:54.064Z,15.67
2018-06-16T03:27:55.035Z,15.67
2018-06-16T03:28:54.919Z,15.65
2018-06-16T03:29:54.522Z,15.65
2018-06-16T03:30:54.566Z,15.67
2018-06-16T03:31:54.403Z,15.67
2018-06-16T03:32:54.205Z,15.70
2018-06-16T03:33:54.968Z,15.68
2018-06-16T03:34:55.111Z,15.72
2018-06-16T03:35:54.870Z,15.68
2018-06-16T03:36:54.954Z,15.70
2018-06-16T03:38:36.356Z,15.72
2018-06-16T03:39:37.624Z,15.70
2018-06-16T03:40:36.419Z,15.73
2018-06-16T03:41:37.243Z,15.73
2018-06-16T03:42:37.029Z,15.75
2018-06-16T03:43:36.949Z,15.77
2018-06-16T03:44:36.902Z,15.79
2018-06-16T03:45:36.742Z,15.80
2018-06-16T03:46:36.473Z,15.82
2018-06-16T03:47:37.569Z,15.83
2018-06-16T03:48:37.186Z,15.84
2018-06-16T03:49:37.007Z,15.84
2018-06-16T03:50:37.261Z,15.86
2018-06-16T03:51:36.957Z,15.86
2018-06-16T03:52:36.806Z,15.88
2018-06-16T03:53:36.569Z,15.90
2018-06-16T03:54:36.291Z,15.86
2018-06-16T03:55:37.195Z,15.84
2018-06-16T03:56:37.303Z,15.84
2018-06-16T03:57:36.969Z,15.83
2018-06-16T03:58:36.579Z,15.83
2018-06-16T03:59:36.314Z,15.82
2018-06-16T04:00:37.412Z,15.83
2018-06-16T04:01:37.545Z,15.83
2018-06-16T04:02:36.489Z,15.83
2018-06-16T04:03:36.313Z,15.84
2018-06-16T04:04:37.496Z,15.83
2018-06-16T04:05:36.379Z,15.86
2018-06-16T04:06:58.124Z,15.88
2018-06-16T04:07:58.957Z,15.91
2018-06-16T04:08:58.721Z,15.91
2018-06-16T04:09:58.796Z,15.92
2018-06-16T04:10:58.500Z,15.97
2018-06-16T04:12:39.611Z,15.98
2018-06-16T04:13:40.645Z,16.01
2018-06-16T04:14:40.727Z,16.00
2018-06-16T04:15:40.871Z,16.01
2018-06-16T04:17:00.088Z,16.04
2018-06-16T04:18:00.862Z,16.05
2018-06-16T04:19:01.112Z,16.09
2018-06-16T04:20:00.825Z,16.12
2018-06-16T04:21:00.742Z,16.12
2018-06-16T04:22:22.165Z,16.12
2018-06-16T04:23:22.923Z,16.13
2018-06-16T04:24:43.911Z,16.15
2018-06-16T04:25:43.923Z,16.20
2018-06-16T04:26:44.093Z,16.20
2018-06-16T04:27:43.835Z,16.21
2018-06-16T04:28:43.603Z,16.23
2018-06-16T04:29:44.501Z,16.26
2018-06-16T04:30:44.705Z,16.28
2018-06-16T04:31:44.453Z,16.29
2018-06-16T04:32:44.189Z,16.32
2018-06-16T04:33:43.950Z,16.33
2018-06-16T04:34:44.084Z,16.38
2018-06-16T04:35:44.139Z,16.43
2018-06-16T04:36:48.583Z,16.49
2018-06-16T04:37:51.491Z,16.53
2018-06-16T04:39:05.311Z,16.58
2018-06-16T04:40:26.014Z,16.66
2018-06-16T04:41:26.262Z,16.71
2018-06-16T04:42:26.015Z,16.76
2018-06-16T04:43:25.919Z,16.84
2018-06-16T04:44:26.224Z,16.90
2018-06-16T04:45:26.046Z,16.96
2018-06-16T04:46:25.881Z,17.01
2018-06-16T04:47:26.592Z,17.06
2018-06-16T04:48:26.562Z,17.12
2018-06-16T04:49:26.547Z,17.20
2018-06-16T04:50:26.356Z,17.24
2018-06-16T04:51:46.383Z,17.33
2018-06-16T04:52:47.195Z,17.41
2018-06-16T04:53:47.341Z,17.46
2018-06-16T04:55:09.705Z,17.57
2018-06-16T04:56:10.379Z,17.63
2018-06-16T04:57:10.299Z,17.65
2018-06-16T04:58:10.439Z,17.67
2018-06-16T04:59:10.215Z,17.71
2018-06-16T05:00:30.884Z,17.79
2018-06-16T05:01:31.030Z,17.86
2018-06-16T05:02:30.850Z,17.92
2018-06-16T05:03:30.929Z,17.97
2018-06-16T05:04:30.625Z,18.00
2018-06-16T05:05:30.883Z,18.04
2018-06-16T05:06:31.290Z,18.08
2018-06-16T05:07:31.059Z,18.16
2018-06-16T05:08:31.505Z,18.25
2018-06-16T05:09:31.134Z,18.31
2018-06-16T05:10:31.367Z,18.35
2018-06-16T05:11:31.595Z,18.38
2018-06-16T05:12:31.672Z,18.43
2018-06-16T05:13:30.911Z,18.50
2018-06-16T05:14:30.719Z,18.59
2018-06-16T05:15:31.938Z,18.63
2018-06-16T05:16:30.880Z,18.68
2018-06-16T05:17:30.702Z,18.74
2018-06-16T05:18:51.558Z,18.77
2018-06-16T05:20:33.798Z,18.86
2018-06-16T05:21:33.985Z,18.92
2018-06-16T05:22:34.190Z,18.93
2018-06-16T05:23:34.067Z,18.96
2018-06-16T05:24:34.384Z,19.00
2018-06-16T05:25:33.514Z,19.07
2018-06-16T05:26:34.359Z,19.09
2018-06-16T05:27:34.211Z,19.15
2018-06-16T05:28:34.038Z,19.21
2018-06-16T05:29:33.975Z,19.26
2018-06-16T05:30:54.536Z,19.30
2018-06-16T05:31:55.763Z,19.36
2018-06-16T05:32:54.927Z,19.40
2018-06-16T05:33:54.855Z,19.44
2018-06-16T05:34:54.861Z,19.48
2018-06-16T05:35:55.727Z,19.54
2018-06-16T05:36:55.466Z,19.59
2018-06-16T05:37:55.836Z,19.67
2018-06-16T05:38:55.087Z,19.73
2018-06-16T05:39:55.356Z,19.81
2018-06-16T05:40:56.148Z,19.85
2018-06-16T05:41:55.113Z,19.91
2018-06-16T05:42:55.512Z,20.03
2018-06-16T05:43:55.368Z,20.11
2018-06-16T05:44:55.836Z,20.21
2018-06-16T05:45:55.043Z,20.34
2018-06-16T05:46:55.261Z,20.48
2018-06-16T05:47:55.390Z,20.59
2018-06-16T05:48:55.509Z,20.67
2018-06-16T05:49:55.355Z,20.74
2018-06-16T05:50:55.647Z,20.78
2018-06-16T05:51:54.934Z,20.84
2018-06-16T05:52:54.792Z,20.90
2018-06-16T05:53:55.052Z,21.03
2018-06-16T05:54:55.238Z,21.06
2018-06-16T05:55:55.214Z,21.09
2018-06-16T05:56:55.057Z,21.11
2018-06-16T05:57:55.015Z,21.18
2018-06-16T05:58:55.001Z,21.30
2018-06-16T05:59:54.724Z,21.42
2018-06-16T06:00:54.620Z,21.51
2018-06-16T06:01:55.515Z,21.60
2018-06-16T06:02:54.953Z,21.67
2018-06-16T06:03:54.742Z,21.73
2018-06-16T06:04:54.558Z,21.76
2018-06-16T06:05:55.742Z,21.83
2018-06-16T06:07:15.280Z,21.83
2018-06-16T06:08:59.463Z,21.89
2018-06-16T06:09:59.786Z,21.92
2018-06-16T06:10:59.703Z,21.96
2018-06-16T06:11:59.734Z,21.95
2018-06-16T06:12:59.721Z,21.92
2018-06-16T06:14:00.026Z,21.87
2018-06-16T06:15:00.849Z,21.92
2018-06-16T06:16:00.140Z,21.93
2018-06-16T06:17:20.815Z,22.00
2018-06-16T06:18:22.435Z,22.10
2018-06-16T06:19:22.479Z,22.17
2018-06-16T06:20:32.485Z,22.28
2018-06-16T06:21:21.705Z,22.30
2018-06-16T06:22:21.984Z,22.41
2018-06-16T06:23:22.256Z,22.54
2018-06-16T06:24:42.207Z,22.63
2018-06-16T06:25:42.666Z,22.59
2018-06-16T06:26:42.698Z,22.44
2018-06-16T06:27:43.032Z,22.32
2018-06-16T06:28:42.997Z,22.33
2018-06-16T06:29:43.156Z,22.29
2018-06-16T06:30:43.184Z,22.29
2018-06-16T06:32:04.215Z,22.25
2018-06-16T06:33:27.646Z,22.08
2018-06-16T06:34:28.114Z,22.02
2018-06-16T06:35:27.747Z,21.99
2018-06-16T06:36:27.692Z,21.99
2018-06-16T06:37:28.000Z,22.04
2018-06-16T06:38:28.920Z,22.07
2018-06-16T06:39:27.808Z,22.00
2018-06-16T06:40:28.214Z,22.00
2018-06-16T06:41:49.449Z,22.00
2018-06-16T06:43:35.950Z,21.89
2018-06-16T06:44:36.667Z,21.83
2018-06-16T06:45:36.958Z,21.83
2018-06-16T06:46:36.314Z,21.92
2018-06-16T06:47:59.605Z,22.00
2018-06-16T06:49:00.859Z,22.11
2018-06-16T06:50:00.266Z,22.22
2018-06-16T06:51:00.727Z,22.36
2018-06-16T06:51:59.865Z,22.45
2018-06-16T06:53:00.204Z,22.54
2018-06-16T06:54:00.753Z,22.68
2018-06-16T06:54:59.851Z,22.78
2018-06-16T06:56:00.296Z,22.90
2018-06-16T06:57:00.770Z,23.05
2018-06-16T06:57:59.872Z,23.44
2018-06-16T06:59:00.272Z,23.78
2018-06-16T07:00:00.047Z,24.05
2018-06-16T07:00:59.948Z,24.24
2018-06-16T07:02:00.303Z,24.38
2018-06-16T07:03:00.246Z,24.61
2018-06-16T07:04:00.670Z,24.80
2018-06-16T07:05:00.071Z,24.81
2018-06-16T07:06:00.419Z,25.04
2018-06-16T07:07:00.735Z,25.17
2018-06-16T07:08:00.078Z,25.38
2018-06-16T07:09:00.514Z,25.65
2018-06-16T07:09:59.484Z,25.78
2018-06-16T07:11:00.398Z,26.09
2018-06-16T07:12:00.593Z,26.34
2018-06-16T07:12:59.963Z,26.44
2018-06-16T07:14:04.402Z,26.19
2018-06-16T07:15:00.299Z,25.83
2018-06-16T07:16:00.564Z,25.62
2018-06-16T07:16:59.864Z,25.66
2018-06-16T07:18:00.194Z,25.75
2018-06-16T07:19:00.656Z,25.85
2018-06-16T07:19:59.985Z,26.02
2018-06-16T07:20:59.970Z,26.21
2018-06-16T07:22:00.497Z,26.06
2018-06-16T07:23:20.179Z,26.05
2018-06-16T07:24:20.941Z,26.18
2018-06-16T07:25:20.742Z,26.29
2018-06-16T07:26:21.150Z,26.33
2018-06-16T07:27:20.650Z,26.47
2018-06-16T07:28:20.719Z,26.70
2018-06-16T07:29:21.498Z,26.84
2018-06-16T07:30:20.693Z,26.85
2018-06-16T07:31:20.671Z,26.96
2018-06-16T07:32:21.069Z,27.07
2018-06-16T07:33:21.354Z,27.12
2018-06-16T07:34:20.228Z,27.21
2018-06-16T07:35:20.242Z,27.33
2018-06-16T07:36:20.649Z,27.37
2018-06-16T07:37:21.019Z,27.30
2018-06-16T07:38:21.233Z,27.22
2018-06-16T07:39:20.490Z,27.29
2018-06-16T07:40:20.892Z,27.40
2018-06-16T07:41:20.749Z,27.47
2018-06-16T07:42:20.927Z,27.52
2018-06-16T07:43:20.910Z,27.55
2018-06-16T07:44:20.773Z,27.36
2018-06-16T07:45:20.630Z,27.22
2018-06-16T07:46:20.495Z,27.17
2018-06-16T07:47:20.401Z,27.22
2018-06-16T07:48:20.796Z,27.15
2018-06-16T07:49:20.858Z,27.10
2018-06-16T07:50:21.366Z,27.02
2018-06-16T07:51:20.133Z,26.88
2018-06-16T07:52:20.593Z,26.53
2018-06-16T07:53:20.971Z,26.21
2018-06-16T07:54:43.817Z,25.99
2018-06-16T07:55:44.686Z,25.70
2018-06-16T07:56:45.083Z,25.68
2018-06-16T07:57:44.044Z,25.65
2018-06-16T07:58:44.221Z,25.78
2018-06-16T07:59:44.505Z,25.98
2018-06-16T08:00:44.383Z,25.91
2018-06-16T08:01:44.595Z,25.96
2018-06-16T08:02:44.986Z,25.90
2018-06-16T08:03:45.612Z,25.88
2018-06-16T08:05:06.627Z,25.68
2018-06-16T08:06:06.674Z,25.70
2018-06-16T08:07:06.291Z,25.55
2018-06-16T08:08:31.484Z,25.55
2018-06-16T08:09:31.329Z,25.54
2018-06-16T08:10:52.358Z,25.46
2018-06-16T08:11:53.142Z,25.43
2018-06-16T08:13:14.264Z,25.36
2018-06-16T08:14:15.678Z,25.46
2018-06-16T08:15:14.476Z,25.55
2018-06-16T08:16:15.089Z,25.73
2018-06-16T08:17:15.313Z,25.98
2018-06-16T08:18:37.547Z,26.15
2018-06-16T08:19:37.440Z,26.33
2018-06-16T08:20:37.767Z,26.60
2018-06-16T08:21:38.017Z,26.81
2018-06-16T08:22:36.955Z,27.05
2018-06-16T08:23:38.389Z,27.21
2018-06-16T08:24:37.202Z,27.35
2018-06-16T08:25:37.628Z,27.39
2018-06-16T08:26:37.923Z,27.45
2018-06-16T08:27:37.766Z,27.49
2018-06-16T08:28:38.044Z,27.39
2018-06-16T08:29:57.937Z,27.58
2018-06-16T08:30:57.977Z,27.74
2018-06-16T08:31:59.497Z,27.80
2018-06-16T08:32:58.458Z,28.00
2018-06-16T08:33:58.379Z,28.14
2018-06-16T08:34:58.740Z,28.15
2018-06-16T08:35:57.738Z,28.25
2018-06-16T08:36:57.749Z,28.26
2018-06-16T08:37:58.025Z,28.33
2018-06-16T08:38:58.211Z,28.33
2018-06-16T08:39:58.681Z,28.29
2018-06-16T08:43:30.268Z,27.96
2018-06-16T08:44:25.929Z,27.80
2018-06-16T08:45:25.907Z,27.75
2018-06-16T08:46:25.571Z,27.65
2018-06-16T08:47:47.732Z,27.54
2018-06-16T08:48:48.454Z,27.70
2018-06-16T08:49:48.073Z,27.85
2018-06-16T08:50:47.722Z,27.96
2018-06-16T08:52:12.241Z,27.85
2018-06-16T08:53:12.936Z,27.36
2018-06-16T08:54:12.956Z,27.20
2018-06-16T08:55:12.490Z,27.12
2018-06-16T08:56:12.366Z,27.20
2018-06-16T08:57:12.130Z,26.99
2018-06-16T08:58:34.242Z,27.00
2018-06-16T08:59:35.051Z,26.97
2018-06-16T09:00:34.817Z,26.99
2018-06-16T09:01:34.751Z,26.95
2018-06-16T09:02:35.264Z,26.89
2018-06-16T09:03:34.825Z,26.78
2018-06-16T09:04:56.020Z,26.60
2018-06-16T09:05:56.914Z,26.52
2018-06-16T09:06:56.959Z,26.26
2018-06-16T09:07:56.672Z,26.03
2018-06-16T09:08:56.384Z,25.91
2018-06-16T09:09:56.005Z,25.90
2018-06-16T09:10:57.221Z,25.96
2018-06-16T09:11:56.393Z,26.07
2018-06-16T09:12:56.682Z,26.26
2018-06-16T09:13:56.331Z,26.48
2018-06-16T09:14:55.986Z,26.62
2018-06-16T09:15:57.168Z,26.60
2018-06-16T09:17:18.381Z,26.71
2018-06-16T09:18:42.481Z,27.02
2018-06-16T09:19:43.561Z,27.17
2018-06-16T09:21:08.451Z,27.39
2018-06-16T09:22:09.898Z,27.60
2018-06-16T09:23:08.255Z,27.86
2018-06-16T09:24:08.751Z,27.98
2018-06-16T09:25:13.799Z,28.12
2018-06-16T09:26:07.844Z,28.39
2018-06-16T09:27:06.891Z,28.59
2018-06-16T09:28:06.653Z,28.63
2018-06-16T09:29:07.962Z,28.54
2018-06-16T09:30:29.822Z,28.20
2018-06-16T09:31:30.053Z,28.23
2018-06-16T09:32:30.053Z,28.29
2018-06-16T09:33:30.246Z,28.44
2018-06-16T09:34:29.914Z,28.47
2018-06-16T09:35:29.483Z,28.62
2018-06-16T09:36:30.997Z,28.76
2018-06-16T09:37:29.638Z,28.98
2018-06-16T09:38:30.141Z,29.26
2018-06-16T09:39:29.796Z,29.42
2018-06-16T09:40:29.682Z,29.36
2018-06-16T09:41:51.828Z,29.04
2018-06-16T09:42:51.949Z,28.82
2018-06-16T09:43:51.620Z,28.74
2018-06-16T09:44:55.166Z,28.64
2018-06-16T09:46:36.739Z,28.62
2018-06-16T09:47:37.268Z,28.70
2018-06-16T09:48:36.855Z,28.78
2018-06-16T09:49:37.744Z,28.51
2018-06-16T09:50:37.523Z,28.33
2018-06-16T09:51:37.849Z,28.08
2018-06-16T09:52:38.046Z,27.86
2018-06-16T09:53:37.218Z,28.02
2018-06-16T09:54:37.051Z,28.12
2018-06-16T09:55:37.146Z,28.27
2018-06-16T09:56:37.017Z,28.51
2018-06-16T09:57:37.714Z,28.78
2018-06-16T09:58:39.539Z,29.01
2018-06-16T09:59:38.672Z,29.05
2018-06-16T10:00:37.757Z,29.24
2018-06-16T10:02:08.312Z,29.22
2018-06-16T10:03:31.667Z,29.13
2018-06-16T10:04:49.688Z,29.13
2018-06-16T10:05:55.016Z,28.93
2018-06-16T10:07:12.361Z,29.02
2018-06-16T10:08:10.966Z,28.91
2018-06-16T10:09:12.639Z,28.93
2018-06-16T10:10:12.248Z,29.16
2018-06-16T10:11:11.817Z,29.32
2018-06-16T10:12:35.450Z,29.84
2018-06-16T10:13:35.473Z,29.94
2018-06-16T10:14:35.173Z,29.91
2018-06-16T10:15:35.974Z,29.78
2018-06-16T10:16:35.494Z,29.82
2018-06-16T10:17:35.186Z,29.91
2018-06-16T10:18:58.015Z,30.51
2018-06-16T10:19:57.971Z,30.48
2018-06-16T10:20:58.550Z,30.54
2018-06-16T10:21:58.631Z,30.53
2018-06-16T10:22:58.424Z,30.65
2018-06-16T10:23:58.867Z,30.30
2018-06-16T10:24:58.624Z,30.31
2018-06-16T10:25:58.356Z,30.21
2018-06-16T10:26:58.209Z,30.02
2018-06-16T10:27:58.042Z,29.98
2018-06-16T10:28:57.898Z,30.13
2018-06-16T10:29:58.135Z,30.16
2018-06-16T10:30:59.517Z,30.25
2018-06-16T10:31:58.454Z,30.40
2018-06-16T10:32:57.900Z,30.00
2018-06-16T10:34:19.169Z,29.73
2018-06-16T10:35:20.043Z,29.98
2018-06-16T10:36:19.561Z,30.23
2018-06-16T10:37:20.424Z,30.18
2018-06-16T10:38:19.917Z,29.79
2018-06-16T10:39:19.761Z,29.68
2018-06-16T10:40:19.707Z,29.57
2018-06-16T10:41:41.088Z,29.69
2018-06-16T10:43:04.017Z,29.69
2018-06-16T10:44:04.561Z,29.50
2018-06-16T10:45:03.593Z,29.42
2018-06-16T10:46:04.082Z,29.10
2018-06-16T10:47:03.818Z,28.81
2018-06-16T10:48:04.292Z,28.67
2018-06-16T10:49:25.681Z,28.62
2018-06-16T10:50:26.864Z,28.57
2018-06-16T10:51:25.475Z,28.81
2018-06-16T10:52:50.075Z,28.64
2018-06-16T10:53:50.645Z,28.76
2018-06-16T10:55:16.825Z,29.01
2018-06-16T10:56:15.920Z,28.96
2018-06-16T10:57:15.758Z,28.79
2018-06-16T10:58:15.397Z,28.33
2018-06-16T10:59:38.915Z,28.35
2018-06-16T11:01:01.354Z,28.19
2018-06-16T11:02:01.415Z,28.22
2018-06-16T11:03:23.577Z,28.52
2018-06-16T11:04:24.232Z,28.66
2018-06-16T11:05:23.851Z,28.72
2018-06-16T11:06:24.664Z,28.54
2018-06-16T11:07:24.717Z,28.59
2018-06-16T11:08:24.560Z,28.66
2018-06-16T11:09:24.427Z,28.78
2018-06-16T11:10:24.241Z,28.96
2018-06-16T11:11:23.775Z,29.23
2018-06-16T11:12:24.564Z,29.54
2018-06-16T11:13:24.455Z,29.54
2018-06-16T11:14:24.382Z,29.36
2018-06-16T11:15:25.497Z,29.17
2018-06-16T11:16:24.640Z,29.13
2018-06-16T11:17:24.660Z,29.12
2018-06-16T11:18:24.360Z,29.07
2018-06-16T11:19:23.922Z,29.07
2018-06-16T11:20:24.707Z,29.34
2018-06-16T11:21:24.576Z,29.42
2018-06-16T11:22:24.571Z,29.34
2018-06-16T11:23:46.111Z,29.39
2018-06-16T11:24:47.072Z,29.38
2018-06-16T11:25:46.944Z,29.32
2018-06-16T11:26:46.955Z,29.34
2018-06-16T11:27:47.013Z,29.38
2018-06-16T11:28:46.991Z,29.17
2018-06-16T11:29:46.845Z,29.08
2018-06-16T11:30:46.402Z,28.97
2018-06-16T11:32:29.922Z,28.76
2018-06-16T11:33:30.637Z,28.63
2018-06-16T11:34:30.214Z,28.62
2018-06-16T11:35:30.878Z,28.63
2018-06-16T11:36:51.887Z,28.54
2018-06-16T11:37:52.394Z,28.56
2018-06-16T11:38:52.270Z,28.63
2018-06-16T11:40:13.103Z,29.17
2018-06-16T11:41:59.441Z,29.29
2018-06-16T11:43:00.010Z,29.19
2018-06-16T11:43:59.534Z,29.20
2018-06-16T11:45:00.424Z,29.10
2018-06-16T11:46:00.243Z,29.31
2018-06-16T11:46:59.690Z,29.56
2018-06-16T11:48:22.289Z,29.65
2018-06-16T11:49:22.933Z,29.71
2018-06-16T11:50:23.033Z,29.81
2018-06-16T11:51:44.247Z,29.72
2018-06-16T11:52:44.801Z,29.50
2018-06-16T11:53:44.309Z,29.22
2018-06-16T11:54:44.854Z,28.94
2018-06-16T11:55:44.358Z,28.98
2018-06-16T11:56:44.904Z,29.14
2018-06-16T11:57:44.833Z,29.34
2018-06-16T11:59:06.361Z,29.47
2018-06-16T12:00:07.056Z,29.57
2018-06-16T12:01:06.596Z,29.78
2018-06-16T12:02:06.460Z,29.90
2018-06-16T12:03:06.097Z,29.98
2018-06-16T12:04:06.839Z,30.18
2018-06-16T12:05:06.362Z,30.16
2018-06-16T12:06:07.420Z,30.05
2018-06-16T12:07:08.239Z,29.81
2018-06-16T12:08:06.799Z,29.90
2018-06-16T12:09:07.504Z,30.03
2018-06-16T12:10:06.207Z,30.18
2018-06-16T12:11:08.118Z,30.05
2018-06-16T12:12:07.558Z,29.97
2018-06-16T12:13:29.396Z,29.86
2018-06-16T12:14:30.192Z,29.72
2018-06-16T12:15:30.646Z,29.50
2018-06-16T12:16:29.516Z,29.45
2018-06-16T12:17:30.345Z,29.51
2018-06-16T12:18:30.106Z,29.61
2018-06-16T12:19:30.070Z,29.97
2018-06-16T12:20:29.958Z,30.44
2018-06-16T12:21:30.266Z,30.62
2018-06-16T12:22:29.711Z,31.14
2018-06-16T12:23:31.192Z,31.64
2018-06-16T12:24:30.447Z,31.71
2018-06-16T12:25:29.895Z,31.80
2018-06-16T12:26:29.537Z,31.84
2018-06-16T12:27:29.908Z,31.69
2018-06-16T12:28:29.714Z,31.18
2018-06-16T12:29:30.924Z,31.05
2018-06-16T12:30:30.193Z,31.12
2018-06-16T12:31:30.299Z,31.07
2018-06-16T12:32:30.405Z,30.96
2018-06-16T12:33:53.596Z,30.77
2018-06-16T12:34:54.380Z,30.80
2018-06-16T12:35:53.992Z,30.77
2018-06-16T12:36:54.079Z,30.59
2018-06-16T12:37:53.986Z,30.25
2018-06-16T12:38:53.661Z,29.91
2018-06-16T12:39:54.308Z,29.73
2018-06-16T12:40:54.018Z,29.38
2018-06-16T12:41:54.940Z,29.32
2018-06-16T12:42:53.821Z,29.32
2018-06-16T12:43:53.798Z,29.04
2018-06-16T12:44:53.438Z,28.69
2018-06-16T12:45:54.354Z,28.60
2018-06-16T12:46:54.467Z,28.86
2018-06-16T12:47:54.042Z,29.27
2018-06-16T12:48:53.899Z,29.23
2018-06-16T12:49:53.771Z,29.51
2018-06-16T12:50:54.090Z,29.78
2018-06-16T12:51:53.991Z,30.03
2018-06-16T12:52:53.998Z,30.02
2018-06-16T12:53:54.037Z,30.00
2018-06-16T12:54:55.279Z,30.15
2018-06-16T12:55:54.676Z,30.37
2018-06-16T12:56:54.300Z,30.57
2018-06-16T12:58:15.560Z,30.21
2018-06-16T12:59:16.160Z,30.37
2018-06-16T13:00:16.861Z,30.65
2018-06-16T13:01:15.745Z,30.43
2018-06-16T13:02:15.597Z,30.34
2018-06-16T13:03:16.572Z,30.30
2018-06-16T13:04:16.486Z,30.57
2018-06-16T13:05:40.382Z,30.99
2018-06-16T13:06:41.099Z,31.33
2018-06-16T13:07:40.758Z,31.85
2018-06-16T13:08:41.318Z,32.21
2018-06-16T13:09:41.069Z,32.30
2018-06-16T13:10:44.703Z,32.52
2018-06-16T13:11:40.960Z,32.65
2018-06-16T13:12:40.524Z,32.75
2018-06-16T13:14:05.051Z,32.59
2018-06-16T13:15:05.891Z,32.49
2018-06-16T13:16:05.466Z,32.19
2018-06-16T13:17:05.753Z,31.81
2018-06-16T13:18:05.326Z,31.46
2018-06-16T13:19:05.154Z,31.62
2018-06-16T13:20:05.093Z,31.78
2018-06-16T13:21:05.795Z,31.85
2018-06-16T13:22:05.246Z,32.11
2018-06-16T13:23:05.697Z,32.04
2018-06-16T13:24:05.630Z,32.11
2018-06-16T13:25:49.405Z,32.00
2018-06-16T13:26:50.233Z,32.22
2018-06-16T13:27:49.750Z,32.63
2018-06-16T13:28:50.707Z,32.89
2018-06-16T13:30:12.221Z,33.09
2018-06-16T13:31:12.040Z,33.07
2018-06-16T13:32:12.991Z,32.93
2018-06-16T13:33:12.662Z,32.63
2018-06-16T13:34:56.089Z,32.85
2018-06-16T13:35:55.707Z,33.24
2018-06-16T13:36:56.220Z,33.24
2018-06-16T13:37:56.058Z,33.43
2018-06-16T13:38:55.706Z,33.55
2018-06-16T13:39:56.618Z,33.87